sensor_id;sensor_type;location;lat;lon;timestamp;temperature;humidity
23556;DHT22;11956;53.184;8.578;2023-08-20T00:00:44;17.00;99.90
23556;DHT22;11956;53.184;8.578;2023-08-20T00:03:45;17.00;99.90
23556;DHT22;11956;53.184;8.578;2023-08-20T00:06:47;17.00;99.90
23556;DHT22;11956;53.184;8.578;2023-08-20T00:09:48;16.90;99.90
23556;DHT22;11956;53.184;8.578;2023-08-20T00:12:49;16.90;99.90
23556;DHT22;11956;53.184;8.578;2023-08-20T00:15:50;16.90;99.90
23556;DHT22;11956;53.184;8.578;2023-08-20T00:18:51;16.80;99.90
23556;DHT22;11956;53.184;8.578;2023-08-20T00:21:52;16.80;99.90
23556;DHT22;11956;53.184;8.578;2023-08-20T00:24:53;16.70;99.90
23556;DHT22;11956;53.184;8.578;2023-08-20T00:27:54;16.70;99.90
23556;DHT22;11956;53.184;8.578;2023-08-20T00:30:56;16.70;99.90
23556;DHT22;11956;53.184;8.578;2023-08-20T00:33:57;16.60;99.90
23556;DHT22;11956;53.184;8.578;2023-08-20T00:36:57;16.60;99.90
23556;DHT22;11956;53.184;8.578;2023-08-20T00:39:58;16.50;99.90
23556;DHT22;11956;53.184;8.578;2023-08-20T00:42:59;16.50;99.90
23556;DHT22;11956;53.184;8.578;2023-08-20T00:46:00;16.50;99.90
23556;DHT22;11956;53.184;8.578;2023-08-20T00:49:01;16.50;99.90
23556;DHT22;11956;53.184;8.578;2023-08-20T00:52:03;16.40;99.90
23556;DHT22;11956;53.184;8.578;2023-08-20T00:55:10;16.40;99.90
23556;DHT22;11956;53.184;8.578;2023-08-20T00:58:11;16.40;99.90
23556;DHT22;11956;53.184;8.578;2023-08-20T01:01:12;16.40;99.90
23556;DHT22;11956;53.184;8.578;2023-08-20T01:04:13;16.40;99.90
23556;DHT22;11956;53.184;8.578;2023-08-20T01:11:24;16.30;99.90
23556;DHT22;11956;53.184;8.578;2023-08-20T01:14:29;16.20;99.90
23556;DHT22;11956;53.184;8.578;2023-08-20T01:17:30;16.20;99.90
23556;DHT22;11956;53.184;8.578;2023-08-20T01:20:38;16.20;99.90
23556;DHT22;11956;53.184;8.578;2023-08-20T01:23:51;16.10;99.90
23556;DHT22;11956;53.184;8.578;2023-08-20T01:27:35;16.10;99.90
23556;DHT22;11956;53.184;8.578;2023-08-20T01:30:44;16.10;99.90
23556;DHT22;11956;53.184;8.578;2023-08-20T01:33:46;16.00;99.90
23556;DHT22;11956;53.184;8.578;2023-08-20T01:36:47;16.00;99.90
23556;DHT22;11956;53.184;8.578;2023-08-20T01:39:48;16.00;99.90
23556;DHT22;11956;53.184;8.578;2023-08-20T01:42:49;15.90;99.90
23556;DHT22;11956;53.184;8.578;2023-08-20T01:45:50;15.80;99.90
23556;DHT22;11956;53.184;8.578;2023-08-20T01:48:51;15.90;99.90
23556;DHT22;11956;53.184;8.578;2023-08-20T01:51:52;15.80;99.90
23556;DHT22;11956;53.184;8.578;2023-08-20T01:54:53;15.80;99.90
23556;DHT22;11956;53.184;8.578;2023-08-20T01:57:54;15.80;99.90
23556;DHT22;11956;53.184;8.578;2023-08-20T02:00:55;15.80;99.90
23556;DHT22;11956;53.184;8.578;2023-08-20T02:03:56;15.80;99.90
23556;DHT22;11956;53.184;8.578;2023-08-20T02:06:57;15.80;99.90
23556;DHT22;11956;53.184;8.578;2023-08-20T02:09:57;15.80;99.90
23556;DHT22;11956;53.184;8.578;2023-08-20T02:12:58;15.70;99.90
23556;DHT22;11956;53.184;8.578;2023-08-20T02:16:03;15.70;99.90
23556;DHT22;11956;53.184;8.578;2023-08-20T02:19:04;15.70;99.90
23556;DHT22;11956;53.184;8.578;2023-08-20T02:22:07;15.70;99.90
23556;DHT22;11956;53.184;8.578;2023-08-20T02:25:08;15.60;99.90
23556;DHT22;11956;53.184;8.578;2023-08-20T02:28:08;15.60;99.90
23556;DHT22;11956;53.184;8.578;2023-08-20T02:31:09;15.60;99.90
23556;DHT22;11956;53.184;8.578;2023-08-20T02:34:10;15.60;99.90
23556;DHT22;11956;53.184;8.578;2023-08-20T02:37:11;15.50;99.90
23556;DHT22;11956;53.184;8.578;2023-08-20T02:40:11;15.50;99.90
23556;DHT22;11956;53.184;8.578;2023-08-20T02:43:14;15.40;99.90
23556;DHT22;11956;53.184;8.578;2023-08-20T02:46:15;15.40;99.90
23556;DHT22;11956;53.184;8.578;2023-08-20T02:49:16;15.50;99.90
23556;DHT22;11956;53.184;8.578;2023-08-20T02:52:17;15.40;99.90
23556;DHT22;11956;53.184;8.578;2023-08-20T02:55:17;15.40;99.90
23556;DHT22;11956;53.184;8.578;2023-08-20T02:58:18;15.40;99.90
23556;DHT22;11956;53.184;8.578;2023-08-20T03:01:23;15.40;99.90
23556;DHT22;11956;53.184;8.578;2023-08-20T03:04:28;15.30;99.90
23556;DHT22;11956;53.184;8.578;2023-08-20T03:07:29;15.30;99.90
23556;DHT22;11956;53.184;8.578;2023-08-20T03:10:30;15.30;99.90
23556;DHT22;11956;53.184;8.578;2023-08-20T03:13:34;15.30;99.90
23556;DHT22;11956;53.184;8.578;2023-08-20T03:16:35;15.20;99.90
23556;DHT22;11956;53.184;8.578;2023-08-20T03:19:36;15.20;99.90
23556;DHT22;11956;53.184;8.578;2023-08-20T03:22:38;15.20;99.90
23556;DHT22;11956;53.184;8.578;2023-08-20T03:25:39;15.20;99.90
23556;DHT22;11956;53.184;8.578;2023-08-20T03:28:40;15.20;99.90
23556;DHT22;11956;53.184;8.578;2023-08-20T03:31:41;15.20;99.90
23556;DHT22;11956;53.184;8.578;2023-08-20T03:34:42;15.10;99.90
23556;DHT22;11956;53.184;8.578;2023-08-20T03:37:43;15.10;99.90
23556;DHT22;11956;53.184;8.578;2023-08-20T03:40:44;15.10;99.90
23556;DHT22;11956;53.184;8.578;2023-08-20T03:43:45;15.10;99.90
23556;DHT22;11956;53.184;8.578;2023-08-20T03:46:46;15.10;99.90
23556;DHT22;11956;53.184;8.578;2023-08-20T03:49:47;15.10;99.90
23556;DHT22;11956;53.184;8.578;2023-08-20T03:52:49;15.10;99.90
23556;DHT22;11956;53.184;8.578;2023-08-20T03:55:51;15.10;99.90
23556;DHT22;11956;53.184;8.578;2023-08-20T03:58:52;15.10;99.90
23556;DHT22;11956;53.184;8.578;2023-08-20T04:01:54;15.10;99.90
23556;DHT22;11956;53.184;8.578;2023-08-20T04:04:57;15.10;99.90
23556;DHT22;11956;53.184;8.578;2023-08-20T04:07:58;15.10;99.90
23556;DHT22;11956;53.184;8.578;2023-08-20T04:10:59;15.10;99.90
23556;DHT22;11956;53.184;8.578;2023-08-20T04:14:00;15.10;99.90
23556;DHT22;11956;53.184;8.578;2023-08-20T04:17:01;15.10;99.90
23556;DHT22;11956;53.184;8.578;2023-08-20T04:20:02;15.10;99.90
23556;DHT22;11956;53.184;8.578;2023-08-20T04:23:05;15.10;99.90
23556;DHT22;11956;53.184;8.578;2023-08-20T04:26:06;15.10;99.90
23556;DHT22;11956;53.184;8.578;2023-08-20T04:29:07;15.10;99.90
23556;DHT22;11956;53.184;8.578;2023-08-20T04:32:08;15.20;99.90
23556;DHT22;11956;53.184;8.578;2023-08-20T04:35:09;15.30;99.90
23556;DHT22;11956;53.184;8.578;2023-08-20T04:38:11;15.30;99.90
23556;DHT22;11956;53.184;8.578;2023-08-20T04:41:12;15.40;99.90
23556;DHT22;11956;53.184;8.578;2023-08-20T04:44:13;15.40;99.90
23556;DHT22;11956;53.184;8.578;2023-08-20T04:47:14;15.40;99.90
23556;DHT22;11956;53.184;8.578;2023-08-20T04:50:15;15.50;99.90
23556;DHT22;11956;53.184;8.578;2023-08-20T04:53:15;15.60;99.90
23556;DHT22;11956;53.184;8.578;2023-08-20T04:56:18;15.70;99.90
23556;DHT22;11956;53.184;8.578;2023-08-20T04:59:19;15.80;99.90
23556;DHT22;11956;53.184;8.578;2023-08-20T05:02:41;15.90;99.90
23556;DHT22;11956;53.184;8.578;2023-08-20T05:05:49;16.20;99.90
23556;DHT22;11956;53.184;8.578;2023-08-20T05:08:51;16.50;99.90
23556;DHT22;11956;53.184;8.578;2023-08-20T05:11:51;17.10;99.90
23556;DHT22;11956;53.184;8.578;2023-08-20T05:14:52;18.00;99.90
23556;DHT22;11956;53.184;8.578;2023-08-20T05:17:54;18.80;99.90
23556;DHT22;11956;53.184;8.578;2023-08-20T05:20:55;19.70;99.90
23556;DHT22;11956;53.184;8.578;2023-08-20T05:23:56;20.70;99.90
23556;DHT22;11956;53.184;8.578;2023-08-20T05:27:14;21.50;99.90
23556;DHT22;11956;53.184;8.578;2023-08-20T05:30:19;22.30;99.90
23556;DHT22;11956;53.184;8.578;2023-08-20T05:33:20;22.90;99.90
23556;DHT22;11956;53.184;8.578;2023-08-20T05:36:24;23.60;99.90
23556;DHT22;11956;53.184;8.578;2023-08-20T05:39:25;24.30;99.90
23556;DHT22;11956;53.184;8.578;2023-08-20T05:42:26;25.10;99.90
23556;DHT22;11956;53.184;8.578;2023-08-20T05:45:35;25.80;99.90
23556;DHT22;11956;53.184;8.578;2023-08-20T05:48:36;26.40;99.90
23556;DHT22;11956;53.184;8.578;2023-08-20T05:51:37;26.90;99.90
23556;DHT22;11956;53.184;8.578;2023-08-20T05:54:38;27.20;99.90
23556;DHT22;11956;53.184;8.578;2023-08-20T05:57:39;27.30;99.90
23556;DHT22;11956;53.184;8.578;2023-08-20T06:00:41;27.50;99.90
23556;DHT22;11956;53.184;8.578;2023-08-20T06:03:42;27.80;99.90
23556;DHT22;11956;53.184;8.578;2023-08-20T06:06:43;28.20;99.90
23556;DHT22;11956;53.184;8.578;2023-08-20T06:09:44;28.70;99.90
23556;DHT22;11956;53.184;8.578;2023-08-20T06:12:45;28.60;99.90
23556;DHT22;11956;53.184;8.578;2023-08-20T06:15:46;28.90;99.90
23556;DHT22;11956;53.184;8.578;2023-08-20T06:18:46;29.50;99.90
23556;DHT22;11956;53.184;8.578;2023-08-20T06:21:47;30.20;99.90
23556;DHT22;11956;53.184;8.578;2023-08-20T06:24:48;30.60;99.90
23556;DHT22;11956;53.184;8.578;2023-08-20T06:27:49;31.20;99.90
23556;DHT22;11956;53.184;8.578;2023-08-20T06:30:50;31.60;99.90
23556;DHT22;11956;53.184;8.578;2023-08-20T06:33:51;31.70;99.10
23556;DHT22;11956;53.184;8.578;2023-08-20T06:36:52;31.40;99.60
23556;DHT22;11956;53.184;8.578;2023-08-20T06:39:53;31.70;98.60
23556;DHT22;11956;53.184;8.578;2023-08-20T06:42:54;31.60;98.60
23556;DHT22;11956;53.184;8.578;2023-08-20T06:45:55;31.90;98.80
23556;DHT22;11956;53.184;8.578;2023-08-20T06:48:55;32.30;97.70
23556;DHT22;11956;53.184;8.578;2023-08-20T06:51:56;32.00;97.90
23556;DHT22;11956;53.184;8.578;2023-08-20T06:54:57;32.40;97.70
23556;DHT22;11956;53.184;8.578;2023-08-20T06:57:58;33.10;96.70
23556;DHT22;11956;53.184;8.578;2023-08-20T07:00:58;33.70;95.80
23556;DHT22;11956;53.184;8.578;2023-08-20T07:04:07;34.60;95.00
23556;DHT22;11956;53.184;8.578;2023-08-20T07:07:08;35.20;93.40
23556;DHT22;11956;53.184;8.578;2023-08-20T07:10:09;34.90;93.70
23556;DHT22;11956;53.184;8.578;2023-08-20T07:13:10;35.20;93.00
23556;DHT22;11956;53.184;8.578;2023-08-20T07:16:11;35.10;93.00
23556;DHT22;11956;53.184;8.578;2023-08-20T07:19:12;35.20;92.90
23556;DHT22;11956;53.184;8.578;2023-08-20T07:22:13;35.10;92.80
23556;DHT22;11956;53.184;8.578;2023-08-20T07:25:14;34.90;93.00
23556;DHT22;11956;53.184;8.578;2023-08-20T07:28:15;34.80;93.40
23556;DHT22;11956;53.184;8.578;2023-08-20T07:31:21;35.60;92.70
23556;DHT22;11956;53.184;8.578;2023-08-20T07:34:23;35.80;92.80
23556;DHT22;11956;53.184;8.578;2023-08-20T07:37:24;36.60;91.10
23556;DHT22;11956;53.184;8.578;2023-08-20T07:40:24;37.30;90.20
23556;DHT22;11956;53.184;8.578;2023-08-20T07:43:25;36.90;90.30
23556;DHT22;11956;53.184;8.578;2023-08-20T07:46:26;37.30;89.60
23556;DHT22;11956;53.184;8.578;2023-08-20T07:49:27;37.60;88.00
23556;DHT22;11956;53.184;8.578;2023-08-20T07:52:28;37.80;87.10
23556;DHT22;11956;53.184;8.578;2023-08-20T07:55:29;38.60;83.80
23556;DHT22;11956;53.184;8.578;2023-08-20T07:58:30;38.20;83.20
23556;DHT22;11956;53.184;8.578;2023-08-20T08:01:30;37.40;85.20
23556;DHT22;11956;53.184;8.578;2023-08-20T08:04:31;37.10;84.40
23556;DHT22;11956;53.184;8.578;2023-08-20T08:07:32;36.20;85.20
23556;DHT22;11956;53.184;8.578;2023-08-20T08:10:33;34.10;90.20
23556;DHT22;11956;53.184;8.578;2023-08-20T08:13:34;32.80;91.80
23556;DHT22;11956;53.184;8.578;2023-08-20T08:16:34;32.60;91.40
23556;DHT22;11956;53.184;8.578;2023-08-20T08:19:35;32.70;91.80
23556;DHT22;11956;53.184;8.578;2023-08-20T08:22:36;32.40;92.30
23556;DHT22;11956;53.184;8.578;2023-08-20T08:25:37;33.20;91.40
23556;DHT22;11956;53.184;8.578;2023-08-20T08:28:38;34.60;90.40
23556;DHT22;11956;53.184;8.578;2023-08-20T08:31:38;36.20;86.70
23556;DHT22;11956;53.184;8.578;2023-08-20T08:34:39;38.20;81.20
23556;DHT22;11956;53.184;8.578;2023-08-20T08:37:40;38.20;79.30
23556;DHT22;11956;53.184;8.578;2023-08-20T08:40:42;38.10;80.30
23556;DHT22;11956;53.184;8.578;2023-08-20T08:43:43;38.40;78.80
23556;DHT22;11956;53.184;8.578;2023-08-20T08:46:44;38.50;77.10
23556;DHT22;11956;53.184;8.578;2023-08-20T08:49:46;37.70;79.40
23556;DHT22;11956;53.184;8.578;2023-08-20T08:52:51;37.30;79.50
23556;DHT22;11956;53.184;8.578;2023-08-20T08:55:53;37.60;79.40
23556;DHT22;11956;53.184;8.578;2023-08-20T08:58:54;37.00;80.40
23556;DHT22;11956;53.184;8.578;2023-08-20T09:01:55;35.20;84.60
23556;DHT22;11956;53.184;8.578;2023-08-20T09:04:57;35.20;84.70
23556;DHT22;11956;53.184;8.578;2023-08-20T09:07:58;36.30;83.10
23556;DHT22;11956;53.184;8.578;2023-08-20T09:11:01;36.80;81.50
23556;DHT22;11956;53.184;8.578;2023-08-20T09:14:03;37.00;81.70
23556;DHT22;11956;53.184;8.578;2023-08-20T09:17:03;35.80;84.30
23556;DHT22;11956;53.184;8.578;2023-08-20T09:20:06;35.50;85.10
23556;DHT22;11956;53.184;8.578;2023-08-20T09:23:13;37.30;81.40
23556;DHT22;11956;53.184;8.578;2023-08-20T09:26:14;37.70;80.50
23556;DHT22;11956;53.184;8.578;2023-08-20T09:29:15;38.50;78.30
23556;DHT22;11956;53.184;8.578;2023-08-20T09:32:26;38.20;79.10
23556;DHT22;11956;53.184;8.578;2023-08-20T09:35:27;38.20;79.40
23556;DHT22;11956;53.184;8.578;2023-08-20T09:38:28;37.50;80.10
23556;DHT22;11956;53.184;8.578;2023-08-20T09:41:29;36.10;83.50
23556;DHT22;11956;53.184;8.578;2023-08-20T09:44:38;36.60;82.80
23556;DHT22;11956;53.184;8.578;2023-08-20T09:47:40;36.00;83.10
23556;DHT22;11956;53.184;8.578;2023-08-20T09:50:42;34.10;88.60
23556;DHT22;11956;53.184;8.578;2023-08-20T09:57:38;33.50;90.40
23556;DHT22;11956;53.184;8.578;2023-08-20T10:00:39;33.90;90.20
23556;DHT22;11956;53.184;8.578;2023-08-20T10:03:41;33.30;91.20
23556;DHT22;11956;53.184;8.578;2023-08-20T10:06:43;34.50;88.80
23556;DHT22;11956;53.184;8.578;2023-08-20T10:09:44;33.10;91.50
23556;DHT22;11956;53.184;8.578;2023-08-20T10:12:46;32.30;92.90
23556;DHT22;11956;53.184;8.578;2023-08-20T10:15:49;33.50;91.40
23556;DHT22;11956;53.184;8.578;2023-08-20T10:18:51;33.60;91.50
23556;DHT22;11956;53.184;8.578;2023-08-20T10:21:56;33.40;91.20
23556;DHT22;11956;53.184;8.578;2023-08-20T10:24:57;32.80;92.10
23556;DHT22;11956;53.184;8.578;2023-08-20T10:28:25;33.10;92.00
23556;DHT22;11956;53.184;8.578;2023-08-20T10:31:26;34.00;90.80
23556;DHT22;11956;53.184;8.578;2023-08-20T10:34:36;33.80;91.40
23556;DHT22;11956;53.184;8.578;2023-08-20T10:38:03;35.70;87.20
23556;DHT22;11956;53.184;8.578;2023-08-20T10:41:09;36.90;83.80
23556;DHT22;11956;53.184;8.578;2023-08-20T10:44:09;37.80;82.30
23556;DHT22;11956;53.184;8.578;2023-08-20T10:47:17;38.30;80.20
23556;DHT22;11956;53.184;8.578;2023-08-20T10:50:19;36.90;83.80
23556;DHT22;11956;53.184;8.578;2023-08-20T10:53:22;35.70;86.30
23556;DHT22;11956;53.184;8.578;2023-08-20T10:56:23;33.70;90.50
23556;DHT22;11956;53.184;8.578;2023-08-20T10:59:42;32.50;91.90
23556;DHT22;11956;53.184;8.578;2023-08-20T11:02:43;31.70;93.70
23556;DHT22;11956;53.184;8.578;2023-08-20T11:05:48;30.70;95.70
23556;DHT22;11956;53.184;8.578;2023-08-20T11:08:51;30.20;96.30
23556;DHT22;11956;53.184;8.578;2023-08-20T11:11:52;30.00;96.60
23556;DHT22;11956;53.184;8.578;2023-08-20T11:15:00;29.50;97.60
23556;DHT22;11956;53.184;8.578;2023-08-20T11:18:02;28.50;99.90
23556;DHT22;11956;53.184;8.578;2023-08-20T11:21:04;27.70;99.90
23556;DHT22;11956;53.184;8.578;2023-08-20T11:24:06;27.30;99.90
23556;DHT22;11956;53.184;8.578;2023-08-20T11:27:07;27.30;99.90
23556;DHT22;11956;53.184;8.578;2023-08-20T11:30:12;27.40;99.90
23556;DHT22;11956;53.184;8.578;2023-08-20T11:33:13;27.50;99.90
23556;DHT22;11956;53.184;8.578;2023-08-20T11:36:15;27.60;99.90
23556;DHT22;11956;53.184;8.578;2023-08-20T11:39:20;28.00;99.90
23556;DHT22;11956;53.184;8.578;2023-08-20T11:42:20;27.70;99.90
23556;DHT22;11956;53.184;8.578;2023-08-20T11:45:21;27.60;99.90
23556;DHT22;11956;53.184;8.578;2023-08-20T11:48:22;27.50;99.90
23556;DHT22;11956;53.184;8.578;2023-08-20T11:51:23;27.20;99.90
23556;DHT22;11956;53.184;8.578;2023-08-20T11:54:24;27.10;99.90
23556;DHT22;11956;53.184;8.578;2023-08-20T11:57:28;27.10;99.90
23556;DHT22;11956;53.184;8.578;2023-08-20T12:00:30;27.30;99.90
23556;DHT22;11956;53.184;8.578;2023-08-20T12:03:32;27.60;99.90
23556;DHT22;11956;53.184;8.578;2023-08-20T12:06:34;27.70;99.90
23556;DHT22;11956;53.184;8.578;2023-08-20T12:09:36;27.90;99.90
23556;DHT22;11956;53.184;8.578;2023-08-20T12:12:37;28.10;99.90
23556;DHT22;11956;53.184;8.578;2023-08-20T12:15:37;28.20;99.90
23556;DHT22;11956;53.184;8.578;2023-08-20T12:18:38;28.40;99.90
23556;DHT22;11956;53.184;8.578;2023-08-20T12:21:40;28.20;99.90
23556;DHT22;11956;53.184;8.578;2023-08-20T12:24:43;28.20;99.90
23556;DHT22;11956;53.184;8.578;2023-08-20T12:27:44;28.40;99.90
23556;DHT22;11956;53.184;8.578;2023-08-20T12:30:45;28.60;99.90
23556;DHT22;11956;53.184;8.578;2023-08-20T12:33:46;28.40;99.90
23556;DHT22;11956;53.184;8.578;2023-08-20T12:36:49;28.10;99.90
23556;DHT22;11956;53.184;8.578;2023-08-20T12:39:50;28.00;99.90
23556;DHT22;11956;53.184;8.578;2023-08-20T12:42:51;27.80;99.90
23556;DHT22;11956;53.184;8.578;2023-08-20T12:45:51;27.60;99.90
23556;DHT22;11956;53.184;8.578;2023-08-20T12:48:52;27.30;99.90
23556;DHT22;11956;53.184;8.578;2023-08-20T12:51:53;27.30;99.90
23556;DHT22;11956;53.184;8.578;2023-08-20T12:54:54;27.50;99.90
23556;DHT22;11956;53.184;8.578;2023-08-20T12:57:56;27.40;99.90
23556;DHT22;11956;53.184;8.578;2023-08-20T13:00:58;27.40;99.90
23556;DHT22;11956;53.184;8.578;2023-08-20T13:03:59;27.60;99.90
23556;DHT22;11956;53.184;8.578;2023-08-20T13:07:00;27.80;99.90
23556;DHT22;11956;53.184;8.578;2023-08-20T13:10:02;27.80;99.90
23556;DHT22;11956;53.184;8.578;2023-08-20T13:13:04;27.60;99.90
23556;DHT22;11956;53.184;8.578;2023-08-20T13:16:05;27.60;99.90
23556;DHT22;11956;53.184;8.578;2023-08-20T13:19:06;27.70;99.90
23556;DHT22;11956;53.184;8.578;2023-08-20T13:22:07;27.60;99.90
23556;DHT22;11956;53.184;8.578;2023-08-20T13:25:09;27.50;99.90
23556;DHT22;11956;53.184;8.578;2023-08-20T13:28:10;27.60;99.90
23556;DHT22;11956;53.184;8.578;2023-08-20T13:31:11;27.70;99.90
23556;DHT22;11956;53.184;8.578;2023-08-20T13:34:11;27.60;99.90
23556;DHT22;11956;53.184;8.578;2023-08-20T13:37:12;27.60;99.90
23556;DHT22;11956;53.184;8.578;2023-08-20T13:40:13;27.60;99.90
23556;DHT22;11956;53.184;8.578;2023-08-20T13:43:14;27.60;99.90
23556;DHT22;11956;53.184;8.578;2023-08-20T13:46:15;27.40;99.90
23556;DHT22;11956;53.184;8.578;2023-08-20T13:49:15;27.60;99.90
23556;DHT22;11956;53.184;8.578;2023-08-20T13:52:16;27.70;99.90
23556;DHT22;11956;53.184;8.578;2023-08-20T13:55:17;27.60;99.90
23556;DHT22;11956;53.184;8.578;2023-08-20T13:58:18;27.50;99.90
23556;DHT22;11956;53.184;8.578;2023-08-20T14:01:19;27.20;99.90
23556;DHT22;11956;53.184;8.578;2023-08-20T14:04:20;27.30;99.90
23556;DHT22;11956;53.184;8.578;2023-08-20T14:07:20;27.30;99.90
23556;DHT22;11956;53.184;8.578;2023-08-20T14:10:21;27.30;99.90
23556;DHT22;11956;53.184;8.578;2023-08-20T14:13:22;27.40;99.90
23556;DHT22;11956;53.184;8.578;2023-08-20T14:16:23;27.30;99.50
23556;DHT22;11956;53.184;8.578;2023-08-20T14:19:24;27.20;99.90
23556;DHT22;11956;53.184;8.578;2023-08-20T14:22:24;27.10;99.50
23556;DHT22;11956;53.184;8.578;2023-08-20T14:25:26;27.00;99.90
23556;DHT22;11956;53.184;8.578;2023-08-20T14:28:27;27.10;99.90
23556;DHT22;11956;53.184;8.578;2023-08-20T14:31:27;27.40;99.60
23556;DHT22;11956;53.184;8.578;2023-08-20T14:34:28;27.50;99.20
23556;DHT22;11956;53.184;8.578;2023-08-20T14:37:29;27.70;98.50
23556;DHT22;11956;53.184;8.578;2023-08-20T14:40:30;27.80;98.40
23556;DHT22;11956;53.184;8.578;2023-08-20T14:43:32;28.10;98.10
23556;DHT22;11956;53.184;8.578;2023-08-20T14:46:33;28.10;97.30
23556;DHT22;11956;53.184;8.578;2023-08-20T14:49:33;28.00;97.50
23556;DHT22;11956;53.184;8.578;2023-08-20T14:52:34;28.00;97.60
23556;DHT22;11956;53.184;8.578;2023-08-20T14:55:35;27.60;98.30
23556;DHT22;11956;53.184;8.578;2023-08-20T14:58:36;27.40;98.00
23556;DHT22;11956;53.184;8.578;2023-08-20T15:01:37;27.60;98.60
23556;DHT22;11956;53.184;8.578;2023-08-20T15:04:38;27.80;97.70
23556;DHT22;11956;53.184;8.578;2023-08-20T15:07:39;28.00;97.60
23556;DHT22;11956;53.184;8.578;2023-08-20T15:10:40;28.00;97.00
23556;DHT22;11956;53.184;8.578;2023-08-20T15:13:43;27.60;97.20
23556;DHT22;11956;53.184;8.578;2023-08-20T15:16:45;27.40;97.50
23556;DHT22;11956;53.184;8.578;2023-08-20T15:19:46;27.30;97.80
23556;DHT22;11956;53.184;8.578;2023-08-20T15:22:47;27.20;97.70
23556;DHT22;11956;53.184;8.578;2023-08-20T15:25:48;27.20;96.80
23556;DHT22;11956;53.184;8.578;2023-08-20T15:28:48;27.40;96.60
23556;DHT22;11956;53.184;8.578;2023-08-20T15:31:49;27.60;96.70
23556;DHT22;11956;53.184;8.578;2023-08-20T15:34:52;27.30;96.30
23556;DHT22;11956;53.184;8.578;2023-08-20T15:37:53;27.20;96.50
23556;DHT22;11956;53.184;8.578;2023-08-20T15:40:54;27.00;96.00
23556;DHT22;11956;53.184;8.578;2023-08-20T15:43:55;26.70;96.30
23556;DHT22;11956;53.184;8.578;2023-08-20T15:46:56;26.60;97.50
23556;DHT22;11956;53.184;8.578;2023-08-20T15:49:57;26.70;96.80
23556;DHT22;11956;53.184;8.578;2023-08-20T15:52:58;26.70;96.90
23556;DHT22;11956;53.184;8.578;2023-08-20T15:55:58;26.60;97.10
23556;DHT22;11956;53.184;8.578;2023-08-20T15:58:59;26.60;97.80
23556;DHT22;11956;53.184;8.578;2023-08-20T16:02:00;26.50;97.30
23556;DHT22;11956;53.184;8.578;2023-08-20T16:05:01;26.40;97.40
23556;DHT22;11956;53.184;8.578;2023-08-20T16:08:03;26.40;97.80
23556;DHT22;11956;53.184;8.578;2023-08-20T16:11:04;26.30;97.90
23556;DHT22;11956;53.184;8.578;2023-08-20T16:14:05;26.20;97.70
23556;DHT22;11956;53.184;8.578;2023-08-20T16:17:05;26.20;98.00
23556;DHT22;11956;53.184;8.578;2023-08-20T16:20:07;26.30;98.30
23556;DHT22;11956;53.184;8.578;2023-08-20T16:23:08;26.20;97.60
23556;DHT22;11956;53.184;8.578;2023-08-20T16:26:09;26.10;97.90
23556;DHT22;11956;53.184;8.578;2023-08-20T16:29:09;26.20;98.30
23556;DHT22;11956;53.184;8.578;2023-08-20T16:32:10;26.20;98.70
23556;DHT22;11956;53.184;8.578;2023-08-20T16:35:11;26.10;99.10
23556;DHT22;11956;53.184;8.578;2023-08-20T16:38:12;26.00;99.90
23556;DHT22;11956;53.184;8.578;2023-08-20T16:41:13;25.70;99.90
23556;DHT22;11956;53.184;8.578;2023-08-20T16:44:13;25.40;99.90
23556;DHT22;11956;53.184;8.578;2023-08-20T16:47:15;25.30;99.90
23556;DHT22;11956;53.184;8.578;2023-08-20T16:50:16;25.10;99.90
23556;DHT22;11956;53.184;8.578;2023-08-20T16:53:17;25.00;99.90
23556;DHT22;11956;53.184;8.578;2023-08-20T16:56:17;24.90;99.90
23556;DHT22;11956;53.184;8.578;2023-08-20T16:59:18;24.60;99.90
23556;DHT22;11956;53.184;8.578;2023-08-20T17:02:19;24.40;99.90
23556;DHT22;11956;53.184;8.578;2023-08-20T17:05:20;24.20;99.90
23556;DHT22;11956;53.184;8.578;2023-08-20T17:08:21;24.10;99.90
23556;DHT22;11956;53.184;8.578;2023-08-20T17:11:22;23.90;99.90
23556;DHT22;11956;53.184;8.578;2023-08-20T17:14:22;23.80;99.90
23556;DHT22;11956;53.184;8.578;2023-08-20T17:17:27;23.70;99.90
23556;DHT22;11956;53.184;8.578;2023-08-20T17:20:29;23.60;99.90
23556;DHT22;11956;53.184;8.578;2023-08-20T17:23:30;23.50;99.90
23556;DHT22;11956;53.184;8.578;2023-08-20T17:26:31;23.40;99.90
23556;DHT22;11956;53.184;8.578;2023-08-20T17:29:32;23.40;99.90
23556;DHT22;11956;53.184;8.578;2023-08-20T17:32:33;23.40;99.90
23556;DHT22;11956;53.184;8.578;2023-08-20T17:35:33;23.30;99.90
23556;DHT22;11956;53.184;8.578;2023-08-20T17:38:34;23.20;99.90
23556;DHT22;11956;53.184;8.578;2023-08-20T17:41:35;23.10;99.90
23556;DHT22;11956;53.184;8.578;2023-08-20T17:44:36;23.00;99.90
23556;DHT22;11956;53.184;8.578;2023-08-20T17:47:37;22.90;99.90
23556;DHT22;11956;53.184;8.578;2023-08-20T17:50:38;22.80;99.90
23556;DHT22;11956;53.184;8.578;2023-08-20T17:53:39;22.70;99.90
23556;DHT22;11956;53.184;8.578;2023-08-20T17:56:40;22.60;99.90
23556;DHT22;11956;53.184;8.578;2023-08-20T17:59:41;22.50;99.90
23556;DHT22;11956;53.184;8.578;2023-08-20T18:02:42;22.30;99.90
23556;DHT22;11956;53.184;8.578;2023-08-20T18:05:43;22.30;99.90
23556;DHT22;11956;53.184;8.578;2023-08-20T18:08:45;22.10;99.90
23556;DHT22;11956;53.184;8.578;2023-08-20T18:11:45;22.00;99.90
23556;DHT22;11956;53.184;8.578;2023-08-20T18:14:46;22.00;99.90
23556;DHT22;11956;53.184;8.578;2023-08-20T18:17:47;21.90;99.90
23556;DHT22;11956;53.184;8.578;2023-08-20T18:20:48;21.80;99.90
23556;DHT22;11956;53.184;8.578;2023-08-20T18:23:49;21.70;99.90
23556;DHT22;11956;53.184;8.578;2023-08-20T18:26:49;21.50;99.90
23556;DHT22;11956;53.184;8.578;2023-08-20T18:29:50;21.50;99.90
23556;DHT22;11956;53.184;8.578;2023-08-20T18:32:51;21.50;99.90
23556;DHT22;11956;53.184;8.578;2023-08-20T18:35:59;21.40;99.90
23556;DHT22;11956;53.184;8.578;2023-08-20T18:39:00;21.40;99.90
23556;DHT22;11956;53.184;8.578;2023-08-20T18:42:04;21.30;99.90
23556;DHT22;11956;53.184;8.578;2023-08-20T18:45:07;21.20;99.90
23556;DHT22;11956;53.184;8.578;2023-08-20T18:48:08;21.20;99.90
23556;DHT22;11956;53.184;8.578;2023-08-20T18:51:09;21.10;99.90
23556;DHT22;11956;53.184;8.578;2023-08-20T18:54:09;21.10;99.90
23556;DHT22;11956;53.184;8.578;2023-08-20T18:57:11;21.00;99.90
23556;DHT22;11956;53.184;8.578;2023-08-20T19:00:13;20.90;99.90
23556;DHT22;11956;53.184;8.578;2023-08-20T19:03:14;20.80;99.90
23556;DHT22;11956;53.184;8.578;2023-08-20T19:06:15;20.80;99.90
23556;DHT22;11956;53.184;8.578;2023-08-20T19:09:16;20.70;99.90
23556;DHT22;11956;53.184;8.578;2023-08-20T19:12:17;20.70;99.90
23556;DHT22;11956;53.184;8.578;2023-08-20T19:15:18;20.60;99.90